createdAt,value
2018-12-22T00:00:36.482Z,7.87
2018-12-22T00:05:41.528Z,7.90
2018-12-22T00:10:46.467Z,6.43
2018-12-22T00:15:51.244Z,8.43
2018-12-22T00:20:56.613Z,7.13
2018-12-22T00:31:30.383Z,7.90
2018-12-22T00:36:35.214Z,7.28
2018-12-22T00:41:39.989Z,7.03
2018-12-22T00:46:44.854Z,8.10
2018-12-22T00:51:49.886Z,6.93
2018-12-22T00:56:54.862Z,7.17
2018-12-22T01:02:20.972Z,7.93
2018-12-22T01:13:03.747Z,7.60
2018-12-22T01:18:08.644Z,7.60
2018-12-22T01:23:13.437Z,5.63
2018-12-22T01:28:18.270Z,6.80
2018-12-22T01:33:23.246Z,7.23
2018-12-22T01:38:28.076Z,7.03
2018-12-22T01:43:32.946Z,6.12
2018-12-22T01:54:16.116Z,6.83
2018-12-22T01:59:20.907Z,6.73
2018-12-22T02:04:25.628Z,7.57
2018-12-22T02:09:30.377Z,7.67
2018-12-22T02:14:35.327Z,8.10
2018-12-22T02:19:40.153Z,7.40
2018-12-22T02:24:45.029Z,7.30
2018-12-22T02:29:49.986Z,8.37
2018-12-22T02:34:54.855Z,9.33
2018-12-22T02:39:59.815Z,8.20
2018-12-22T02:45:05.192Z,7.53
2018-12-22T02:50:11.496Z,7.47
2018-12-22T03:00:50.867Z,7.73
2018-12-22T03:05:55.782Z,6.63
2018-12-22T03:11:00.652Z,7.47
2018-12-22T03:16:05.597Z,8.30
2018-12-22T03:21:10.541Z,8.30
2018-12-22T03:26:15.472Z,7.90
2018-12-22T03:31:20.238Z,7.73
2018-12-22T03:41:53.807Z,7.53
2018-12-22T03:46:58.719Z,7.12
2018-12-22T03:52:03.757Z,7.13
2018-12-22T03:57:08.511Z,6.67
2018-12-22T04:02:13.447Z,7.50
2018-12-22T04:07:18.312Z,8.20
2018-12-22T04:12:23.157Z,6.73
2018-12-22T04:17:28.128Z,8.70
2018-12-22T04:22:33.056Z,6.37
2018-12-22T04:27:37.927Z,6.77
2018-12-22T04:32:42.752Z,6.23
2018-12-22T04:37:47.577Z,6.00
2018-12-22T04:42:52.372Z,8.03
2018-12-22T04:47:57.247Z,6.50
2018-12-22T04:53:02.031Z,7.27
2018-12-22T04:58:06.850Z,6.30
2018-12-22T05:03:11.764Z,6.47
2018-12-22T05:08:16.666Z,7.17
2018-12-22T05:13:21.632Z,7.28
2018-12-22T05:18:26.600Z,6.60
2018-12-22T05:23:31.340Z,8.60
2018-12-22T05:28:36.406Z,6.62
2018-12-22T05:33:41.305Z,7.33
2018-12-22T05:38:46.182Z,6.28
2018-12-22T05:43:51.036Z,7.60
2018-12-22T05:48:56.107Z,6.20
2018-12-22T05:54:00.980Z,7.20
2018-12-22T06:04:33.579Z,6.40
2018-12-22T06:09:38.472Z,7.57
2018-12-22T06:14:43.534Z,7.43
2018-12-22T06:19:48.275Z,6.77
2018-12-22T06:24:53.175Z,6.63
2018-12-22T06:29:58.085Z,6.20
2018-12-22T06:35:03.009Z,6.07
2018-12-22T06:40:08.426Z,5.37
2018-12-22T06:45:13.235Z,4.73
2018-12-22T06:50:18.124Z,5.37
2018-12-22T06:55:23.096Z,4.70
2018-12-22T07:00:28.314Z,4.57
2018-12-22T07:05:33.185Z,5.00
2018-12-22T07:10:37.835Z,3.97
2018-12-22T07:15:42.794Z,4.10
2018-12-22T07:20:47.684Z,4.63
2018-12-22T07:25:52.610Z,4.43
2018-12-22T07:30:57.385Z,5.35
2018-12-22T07:36:02.260Z,5.73
2018-12-22T07:41:07.219Z,6.37
2018-12-22T07:46:12.039Z,5.20
2018-12-22T07:51:16.904Z,4.97
2018-12-22T07:56:21.669Z,5.07
2018-12-22T08:01:26.786Z,4.73
2018-12-22T08:06:31.884Z,4.27
2018-12-22T08:11:36.750Z,4.23
2018-12-22T08:16:41.655Z,4.05
2018-12-22T08:21:46.665Z,4.87
2018-12-22T08:26:51.485Z,4.63
2018-12-22T08:31:56.224Z,4.50
2018-12-22T08:37:01.005Z,5.67
2018-12-22T08:42:05.915Z,4.47
2018-12-22T08:47:10.760Z,4.87
2018-12-22T08:52:15.669Z,5.17
2018-12-22T08:57:20.577Z,5.03
2018-12-22T09:02:25.941Z,4.70
2018-12-22T09:07:30.897Z,4.87
2018-12-22T09:12:35.639Z,5.87
2018-12-22T09:17:40.434Z,5.83
2018-12-22T09:22:45.259Z,4.97
2018-12-22T09:27:50.145Z,5.63
2018-12-22T09:32:54.996Z,5.47
2018-12-22T09:37:59.892Z,6.00
2018-12-22T09:43:04.849Z,5.30
2018-12-22T09:48:09.799Z,5.90
2018-12-22T09:53:14.649Z,4.77
2018-12-22T09:58:19.487Z,4.57
2018-12-22T10:03:24.373Z,5.17
2018-12-22T10:08:29.269Z,4.40
2018-12-22T10:13:34.133Z,4.40
2018-12-22T10:18:39.029Z,4.75
2018-12-22T10:23:43.908Z,4.70
2018-12-22T10:28:48.469Z,4.10
2018-12-22T10:33:53.096Z,5.03
2018-12-22T10:38:57.933Z,4.80
2018-12-22T10:44:02.750Z,5.00
2018-12-22T10:49:07.538Z,5.40
2018-12-22T10:54:12.428Z,4.60
2018-12-22T10:59:17.244Z,4.97
2018-12-22T11:04:22.018Z,5.73
2018-12-22T11:09:27.255Z,4.03
2018-12-22T11:14:32.093Z,4.47
2018-12-22T11:19:36.974Z,3.72
2018-12-22T11:24:42.233Z,4.50
2018-12-22T11:29:47.183Z,4.70
2018-12-22T11:34:51.968Z,3.47
2018-12-22T11:39:56.958Z,4.03
2018-12-22T11:45:01.560Z,4.77
2018-12-22T11:50:07.770Z,4.87
2018-12-22T11:55:12.668Z,4.60
2018-12-22T12:00:17.586Z,5.07
2018-12-22T12:05:22.373Z,4.70
2018-12-22T12:10:27.193Z,4.47
2018-12-22T12:15:39.883Z,5.57
2018-12-22T12:20:44.764Z,4.33
2018-12-22T12:25:49.673Z,5.35
2018-12-22T12:30:54.463Z,5.07
2018-12-22T12:35:59.324Z,4.37
2018-12-22T12:41:04.199Z,5.57
2018-12-22T12:46:08.979Z,3.83
2018-12-22T12:51:13.840Z,3.80
2018-12-22T12:56:18.709Z,4.47
2018-12-22T13:01:24.469Z,5.27
2018-12-22T13:07:32.319Z,4.47
2018-12-22T13:12:44.066Z,5.15
2018-12-22T13:17:48.954Z,4.73
2018-12-22T13:22:53.820Z,4.50
2018-12-22T13:27:58.594Z,5.63
2018-12-22T13:33:03.416Z,3.40
2018-12-22T13:38:08.320Z,3.90
2018-12-22T13:43:13.209Z,3.17
2018-12-22T13:48:18.255Z,3.57
2018-12-22T13:53:23.179Z,3.13
2018-12-22T13:58:28.385Z,3.33
2018-12-22T14:03:36.864Z,3.17
2018-12-22T14:08:41.769Z,3.05
2018-12-22T14:13:46.539Z,3.10
2018-12-22T14:18:56.997Z,3.40
2018-12-22T14:24:10.239Z,3.53
2018-12-22T14:29:15.073Z,3.72
2018-12-22T14:34:24.959Z,3.07
2018-12-22T14:39:29.811Z,3.23
2018-12-22T14:44:34.773Z,3.17
2018-12-22T14:49:39.599Z,3.98
2018-12-22T14:54:44.450Z,4.57
2018-12-22T14:59:49.454Z,4.10
2018-12-22T15:04:54.304Z,4.67
2018-12-22T15:09:59.074Z,4.00
2018-12-22T15:15:04.035Z,4.43
2018-12-22T15:20:12.874Z,4.13
2018-12-22T15:25:17.854Z,4.43
2018-12-22T15:30:22.855Z,3.87
2018-12-22T15:35:27.704Z,4.53
2018-12-22T15:40:32.583Z,4.33
2018-12-22T15:45:37.403Z,4.50
2018-12-22T15:50:42.968Z,4.43
2018-12-22T15:55:47.891Z,3.87
2018-12-22T16:00:52.688Z,4.70
2018-12-22T16:05:57.507Z,4.50
2018-12-22T16:11:02.294Z,5.07
2018-12-22T16:16:07.708Z,4.37
2018-12-22T16:32:09.354Z,4.40
2018-12-22T16:37:14.343Z,4.27
2018-12-22T16:42:19.189Z,3.83
2018-12-22T16:47:23.853Z,4.63
2018-12-22T16:52:28.663Z,3.40
2018-12-22T16:57:33.553Z,3.43
2018-12-22T17:02:47.532Z,2.52
2018-12-22T17:07:52.478Z,3.40
2018-12-22T17:12:57.366Z,3.37
2018-12-22T17:18:02.260Z,3.20
2018-12-22T17:23:14.391Z,4.03
2018-12-22T17:28:19.273Z,3.50
2018-12-22T17:33:24.290Z,5.10
2018-12-22T17:38:29.709Z,4.43
2018-12-22T17:43:34.964Z,3.50
2018-12-22T17:48:39.844Z,3.35
2018-12-22T17:53:44.623Z,3.97
2018-12-22T17:58:49.520Z,5.57
2018-12-22T18:03:54.460Z,9.53
2018-12-22T18:08:59.405Z,6.90
2018-12-22T18:14:04.280Z,5.77
2018-12-22T18:19:09.225Z,7.00
2018-12-22T18:24:14.100Z,6.90
2018-12-22T18:29:18.951Z,4.53
2018-12-22T18:34:23.855Z,9.15
2018-12-22T18:39:28.636Z,6.47
2018-12-22T18:44:33.499Z,4.70
2018-12-22T18:49:38.439Z,4.42
2018-12-22T18:54:43.315Z,6.42
2018-12-22T18:59:51.300Z,6.47
2018-12-22T19:04:56.175Z,5.27
2018-12-22T19:10:01.020Z,7.00
2018-12-22T19:15:06.045Z,5.97
2018-12-22T19:20:15.280Z,8.43
2018-12-22T19:25:20.149Z,6.37
2018-12-22T19:30:25.113Z,5.00
2018-12-22T19:35:30.094Z,8.47
2018-12-22T19:40:34.945Z,8.07
2018-12-22T19:45:39.835Z,6.93
2018-12-22T19:50:44.760Z,7.57
2018-12-22T19:55:49.694Z,9.17
2018-12-22T20:00:54.529Z,9.07
2018-12-22T20:05:59.449Z,7.53
2018-12-22T20:11:04.426Z,7.17
2018-12-22T20:16:09.384Z,8.17
2018-12-22T20:21:14.401Z,8.33
2018-12-22T20:26:19.253Z,9.70
2018-12-22T20:31:25.024Z,6.67
2018-12-22T20:36:30.029Z,5.43
2018-12-22T20:41:35.028Z,5.37
2018-12-22T20:46:39.789Z,6.37
2018-12-22T20:51:44.749Z,4.78
2018-12-22T20:56:49.799Z,4.87
2018-12-22T21:01:54.710Z,4.63
2018-12-22T21:06:59.769Z,5.73
2018-12-22T21:12:04.794Z,5.77
2018-12-22T21:17:09.634Z,4.27
2018-12-22T21:22:14.414Z,5.87
2018-12-22T21:27:19.424Z,1.67
2018-12-22T21:32:24.274Z,3.63
2018-12-22T21:37:29.380Z,2.57
2018-12-22T21:42:34.309Z,2.85
2018-12-22T21:47:39.252Z,3.10
2018-12-22T21:52:44.304Z,2.83
2018-12-22T21:57:50.199Z,2.07
2018-12-22T22:02:55.034Z,4.53
2018-12-22T22:07:59.899Z,2.90
2018-12-22T22:13:04.915Z,3.20
2018-12-22T22:18:09.710Z,3.17
2018-12-22T22:23:18.878Z,3.33
2018-12-22T22:28:21.485Z,2.70
2018-12-22T22:33:27.561Z,3.02
2018-12-22T22:38:32.756Z,2.70
2018-12-22T22:43:37.640Z,1.90
2018-12-22T22:48:42.361Z,3.25
2018-12-22T22:53:47.141Z,3.90
2018-12-22T22:58:52.131Z,2.05
2018-12-22T23:03:57.070Z,2.37
2018-12-22T23:09:02.113Z,2.93
2018-12-22T23:14:07.104Z,1.57
2018-12-22T23:19:12.094Z,2.90
2018-12-22T23:24:16.888Z,2.30
2018-12-22T23:29:21.739Z,2.03
2018-12-22T23:34:27.579Z,2.55
2018-12-22T23:39:32.639Z,2.83
2018-12-22T23:44:37.504Z,1.82
2018-12-22T23:49:42.239Z,2.20
2018-12-22T23:54:47.174Z,0.80
2018-12-22T23:59:52.054Z,1.23
